sensor_id;sensor_type;location;lat;lon;timestamp;pressure;altitude;pressure_sealevel;temperature;humidity
43701;BME280;58809;47.984;7.964;2023-01-25T00:01:05;98590.66;;;2.41;100.00
43701;BME280;58809;47.984;7.964;2023-01-25T00:04:06;98593.25;;;2.41;100.00
43701;BME280;58809;47.984;7.964;2023-01-25T00:07:08;98581.50;;;2.34;100.00
43701;BME280;58809;47.984;7.964;2023-01-25T00:10:10;98568.84;;;2.42;100.00
43701;BME280;58809;47.984;7.964;2023-01-25T00:13:11;98575.72;;;2.43;100.00
43701;BME280;58809;47.984;7.964;2023-01-25T00:16:13;98573.00;;;2.45;100.00
43701;BME280;58809;47.984;7.964;2023-01-25T00:19:14;98558.16;;;2.45;100.00
43701;BME280;58809;47.984;7.964;2023-01-25T00:22:16;98574.94;;;2.56;100.00
43701;BME280;58809;47.984;7.964;2023-01-25T00:25:18;98577.47;;;2.57;100.00
43701;BME280;58809;47.984;7.964;2023-01-25T00:28:19;98568.69;;;2.58;100.00
43701;BME280;58809;47.984;7.964;2023-01-25T00:34:57;98556.63;;;2.28;100.00
43701;BME280;58809;47.984;7.964;2023-01-25T00:38:01;98555.78;;;2.42;100.00
43701;BME280;58809;47.984;7.964;2023-01-25T00:41:03;98560.50;;;2.50;100.00
43701;BME280;58809;47.984;7.964;2023-01-25T00:44:05;98553.59;;;2.49;100.00
43701;BME280;58809;47.984;7.964;2023-01-25T00:47:09;98559.69;;;2.49;100.00
43701;BME280;58809;47.984;7.964;2023-01-25T00:50:11;98554.03;;;2.56;100.00
43701;BME280;58809;47.984;7.964;2023-01-25T00:53:13;98553.00;;;2.58;100.00
43701;BME280;58809;47.984;7.964;2023-01-25T00:56:15;98540.88;;;2.57;100.00
43701;BME280;58809;47.984;7.964;2023-01-25T00:59:16;98541.38;;;2.49;100.00
43701;BME280;58809;47.984;7.964;2023-01-25T01:02:18;98545.88;;;2.47;100.00
43701;BME280;58809;47.984;7.964;2023-01-25T01:05:20;98541.00;;;2.41;100.00
43701;BME280;58809;47.984;7.964;2023-01-25T01:16:17;98551.19;;;2.46;100.00
43701;BME280;58809;47.984;7.964;2023-01-25T01:19:18;98541.47;;;2.48;100.00
43701;BME280;58809;47.984;7.964;2023-01-25T01:22:20;98540.09;;;2.42;100.00
43701;BME280;58809;47.984;7.964;2023-01-25T01:25:22;98538.22;;;2.44;100.00
43701;BME280;58809;47.984;7.964;2023-01-25T01:28:24;98537.25;;;2.45;100.00
43701;BME280;58809;47.984;7.964;2023-01-25T01:31:26;98546.22;;;2.56;100.00
43701;BME280;58809;47.984;7.964;2023-01-25T01:34:38;98544.41;;;2.56;100.00
43701;BME280;58809;47.984;7.964;2023-01-25T01:37:41;98528.03;;;2.40;100.00
43701;BME280;58809;47.984;7.964;2023-01-25T01:40:44;98534.50;;;2.34;100.00
43701;BME280;58809;47.984;7.964;2023-01-25T01:43:46;98524.69;;;2.38;100.00
43701;BME280;58809;47.984;7.964;2023-01-25T01:46:56;98529.66;;;2.42;100.00
43701;BME280;58809;47.984;7.964;2023-01-25T01:50:10;98528.91;;;2.40;100.00
43701;BME280;58809;47.984;7.964;2023-01-25T01:53:20;98521.09;;;2.26;100.00
43701;BME280;58809;47.984;7.964;2023-01-25T01:56:33;98522.97;;;2.24;100.00
43701;BME280;58809;47.984;7.964;2023-01-25T01:59:54;98515.72;;;2.15;100.00
43701;BME280;58809;47.984;7.964;2023-01-25T02:02:57;98517.03;;;2.07;100.00
43701;BME280;58809;47.984;7.964;2023-01-25T02:06:20;98510.19;;;2.19;100.00
43701;BME280;58809;47.984;7.964;2023-01-25T02:09:27;98511.88;;;2.20;100.00
43701;BME280;58809;47.984;7.964;2023-01-25T02:12:30;98525.19;;;2.30;100.00
43701;BME280;58809;47.984;7.964;2023-01-25T02:15:43;98505.25;;;2.29;100.00
43701;BME280;58809;47.984;7.964;2023-01-25T02:18:46;98498.53;;;2.10;100.00
43701;BME280;58809;47.984;7.964;2023-01-25T02:21:50;98502.47;;;2.03;100.00
43701;BME280;58809;47.984;7.964;2023-01-25T02:25:21;98499.47;;;2.09;100.00
43701;BME280;58809;47.984;7.964;2023-01-25T02:28:29;98504.06;;;2.06;100.00
43701;BME280;58809;47.984;7.964;2023-01-25T02:31:33;98500.72;;;2.04;100.00
43701;BME280;58809;47.984;7.964;2023-01-25T02:34:34;98506.19;;;2.14;100.00
43701;BME280;58809;47.984;7.964;2023-01-25T02:37:37;98508.06;;;2.11;100.00
43701;BME280;58809;47.984;7.964;2023-01-25T02:40:48;98506.00;;;2.17;100.00
43701;BME280;58809;47.984;7.964;2023-01-25T02:43:52;98506.56;;;2.07;100.00
43701;BME280;58809;47.984;7.964;2023-01-25T02:46:55;98507.97;;;1.99;100.00
43701;BME280;58809;47.984;7.964;2023-01-25T02:49:56;98509.94;;;1.95;100.00
43701;BME280;58809;47.984;7.964;2023-01-25T02:52:58;98507.50;;;1.92;100.00
43701;BME280;58809;47.984;7.964;2023-01-25T02:56:00;98500.88;;;2.01;100.00
43701;BME280;58809;47.984;7.964;2023-01-25T02:59:03;98504.25;;;2.03;100.00
43701;BME280;58809;47.984;7.964;2023-01-25T03:02:07;98491.75;;;1.93;100.00
43701;BME280;58809;47.984;7.964;2023-01-25T03:05:09;98496.25;;;1.91;100.00
43701;BME280;58809;47.984;7.964;2023-01-25T03:08:12;98501.72;;;2.01;100.00
43701;BME280;58809;47.984;7.964;2023-01-25T03:11:14;98507.50;;;1.92;100.00
43701;BME280;58809;47.984;7.964;2023-01-25T03:14:16;98496.72;;;1.98;100.00
43701;BME280;58809;47.984;7.964;2023-01-25T03:17:18;98500.41;;;1.94;100.00
43701;BME280;58809;47.984;7.964;2023-01-25T03:20:20;98489.06;;;1.95;100.00
43701;BME280;58809;47.984;7.964;2023-01-25T03:23:21;98491.19;;;2.03;100.00
43701;BME280;58809;47.984;7.964;2023-01-25T03:26:25;98483.34;;;2.03;100.00
43701;BME280;58809;47.984;7.964;2023-01-25T03:29:42;98481.31;;;1.93;100.00
43701;BME280;58809;47.984;7.964;2023-01-25T03:32:48;98479.34;;;1.97;100.00
43701;BME280;58809;47.984;7.964;2023-01-25T03:35:54;98467.34;;;1.95;100.00
43701;BME280;58809;47.984;7.964;2023-01-25T03:38:55;98470.97;;;1.92;100.00
43701;BME280;58809;47.984;7.964;2023-01-25T03:41:57;98465.31;;;1.85;100.00
43701;BME280;58809;47.984;7.964;2023-01-25T03:44:59;98458.06;;;1.76;100.00
43701;BME280;58809;47.984;7.964;2023-01-25T03:48:01;98455.69;;;1.86;100.00
43701;BME280;58809;47.984;7.964;2023-01-25T03:51:03;98465.31;;;1.85;100.00
43701;BME280;58809;47.984;7.964;2023-01-25T03:54:05;98453.09;;;1.86;100.00
43701;BME280;58809;47.984;7.964;2023-01-25T03:57:09;98446.72;;;1.90;100.00
43701;BME280;58809;47.984;7.964;2023-01-25T04:00:23;98451.59;;;1.96;100.00
43701;BME280;58809;47.984;7.964;2023-01-25T04:03:32;98444.50;;;1.98;100.00
43701;BME280;58809;47.984;7.964;2023-01-25T04:06:34;98451.03;;;1.91;100.00
43701;BME280;58809;47.984;7.964;2023-01-25T04:09:36;98460.44;;;1.79;100.00
43701;BME280;58809;47.984;7.964;2023-01-25T04:12:39;98460.66;;;1.76;100.00
43701;BME280;58809;47.984;7.964;2023-01-25T04:15:41;98464.84;;;1.79;100.00
43701;BME280;58809;47.984;7.964;2023-01-25T04:18:51;98461.31;;;1.80;100.00
43701;BME280;58809;47.984;7.964;2023-01-25T04:21:54;98454.22;;;1.82;100.00
43701;BME280;58809;47.984;7.964;2023-01-25T04:24:57;98455.31;;;1.78;100.00
43701;BME280;58809;47.984;7.964;2023-01-25T04:28:23;98456.28;;;1.77;100.00
43701;BME280;58809;47.984;7.964;2023-01-25T04:31:25;98447.22;;;1.68;100.00
43701;BME280;58809;47.984;7.964;2023-01-25T04:34:27;98444.53;;;1.69;100.00
43701;BME280;58809;47.984;7.964;2023-01-25T04:37:29;98447.06;;;1.71;100.00
43701;BME280;58809;47.984;7.964;2023-01-25T04:40:32;98442.84;;;1.68;100.00
43701;BME280;58809;47.984;7.964;2023-01-25T04:43:34;98435.97;;;1.67;100.00
43701;BME280;58809;47.984;7.964;2023-01-25T04:46:41;98431.00;;;1.63;100.00
43701;BME280;58809;47.984;7.964;2023-01-25T04:49:42;98431.50;;;1.55;100.00
43701;BME280;58809;47.984;7.964;2023-01-25T04:52:44;98435.97;;;1.67;100.00
43701;BME280;58809;47.984;7.964;2023-01-25T04:55:46;98450.56;;;1.70;100.00
43701;BME280;58809;47.984;7.964;2023-01-25T04:58:48;98442.50;;;1.60;100.00
43701;BME280;58809;47.984;7.964;2023-01-25T05:01:50;98448.34;;;1.64;100.00
43701;BME280;58809;47.984;7.964;2023-01-25T05:04:52;98458.06;;;1.62;100.00
43701;BME280;58809;47.984;7.964;2023-01-25T05:07:54;98444.06;;;1.63;100.00
43701;BME280;58809;47.984;7.964;2023-01-25T05:10:56;98428.03;;;1.69;100.00
43701;BME280;58809;47.984;7.964;2023-01-25T05:14:11;98425.06;;;1.61;100.00
43701;BME280;58809;47.984;7.964;2023-01-25T05:17:16;98435.22;;;1.51;100.00
43701;BME280;58809;47.984;7.964;2023-01-25T05:20:17;98433.53;;;1.50;100.00
43701;BME280;58809;47.984;7.964;2023-01-25T05:23:19;98418.34;;;1.57;100.00
43701;BME280;58809;47.984;7.964;2023-01-25T05:26:21;98425.69;;;1.64;100.00
43701;BME280;58809;47.984;7.964;2023-01-25T05:29:43;98421.44;;;1.63;100.00
43701;BME280;58809;47.984;7.964;2023-01-25T05:32:47;98429.91;;;1.67;100.00
43701;BME280;58809;47.984;7.964;2023-01-25T05:35:49;98431.22;;;1.74;100.00
43701;BME280;58809;47.984;7.964;2023-01-25T05:38:51;98434.66;;;1.75;100.00
43701;BME280;58809;47.984;7.964;2023-01-25T05:41:53;98437.91;;;1.78;100.00
43701;BME280;58809;47.984;7.964;2023-01-25T05:44:56;98436.28;;;1.90;100.00
43701;BME280;58809;47.984;7.964;2023-01-25T05:47:58;98436.75;;;1.97;100.00
43701;BME280;58809;47.984;7.964;2023-01-25T05:51:00;98426.63;;;1.78;100.00
43701;BME280;58809;47.984;7.964;2023-01-25T05:54:06;98439.28;;;1.84;100.00
43701;BME280;58809;47.984;7.964;2023-01-25T05:57:09;98430.72;;;1.82;100.00
43701;BME280;58809;47.984;7.964;2023-01-25T06:00:15;98435.00;;;1.83;100.00
43701;BME280;58809;47.984;7.964;2023-01-25T06:03:16;98431.28;;;1.87;100.00
43701;BME280;58809;47.984;7.964;2023-01-25T06:06:19;98428.38;;;1.91;100.00
43701;BME280;58809;47.984;7.964;2023-01-25T06:09:21;98435.38;;;1.91;100.00
43701;BME280;58809;47.984;7.964;2023-01-25T06:12:25;98431.91;;;1.90;100.00
43701;BME280;58809;47.984;7.964;2023-01-25T06:15:29;98430.72;;;1.82;100.00
43701;BME280;58809;47.984;7.964;2023-01-25T06:18:50;98433.34;;;1.82;100.00
43701;BME280;58809;47.984;7.964;2023-01-25T06:22:06;98443.13;;;1.78;100.00
43701;BME280;58809;47.984;7.964;2023-01-25T06:25:09;98431.22;;;1.74;100.00
43701;BME280;58809;47.984;7.964;2023-01-25T06:28:11;98432.13;;;1.73;100.00
43701;BME280;58809;47.984;7.964;2023-01-25T06:31:15;98425.34;;;1.56;100.00
43701;BME280;58809;47.984;7.964;2023-01-25T06:34:17;98425.63;;;1.51;100.00
43701;BME280;58809;47.984;7.964;2023-01-25T06:37:18;98425.53;;;1.67;100.00
43701;BME280;58809;47.984;7.964;2023-01-25T06:40:22;98429.22;;;1.78;100.00
43701;BME280;58809;47.984;7.964;2023-01-25T06:43:23;98430.16;;;1.91;100.00
43701;BME280;58809;47.984;7.964;2023-01-25T06:46:25;98424.53;;;1.97;100.00
43701;BME280;58809;47.984;7.964;2023-01-25T06:49:27;98421.66;;;2.02;100.00
43701;BME280;58809;47.984;7.964;2023-01-25T06:52:29;98421.34;;;2.06;100.00
43701;BME280;58809;47.984;7.964;2023-01-25T06:55:32;98421.16;;;2.09;100.00
43701;BME280;58809;47.984;7.964;2023-01-25T06:58:34;98418.31;;;1.85;100.00
43701;BME280;58809;47.984;7.964;2023-01-25T07:01:37;98419.00;;;1.75;100.00
43701;BME280;58809;47.984;7.964;2023-01-25T07:04:39;98421.97;;;1.68;100.00
43701;BME280;58809;47.984;7.964;2023-01-25T07:07:44;98417.41;;;1.72;100.00
43701;BME280;58809;47.984;7.964;2023-01-25T07:10:52;98417.50;;;1.70;100.00
43701;BME280;58809;47.984;7.964;2023-01-25T07:13:54;98417.50;;;1.70;100.00
43701;BME280;58809;47.984;7.964;2023-01-25T07:16:56;98415.44;;;1.76;100.00
43701;BME280;58809;47.984;7.964;2023-01-25T07:19:58;98416.63;;;1.84;100.00
43701;BME280;58809;47.984;7.964;2023-01-25T07:22:59;98404.78;;;1.93;100.00
43701;BME280;58809;47.984;7.964;2023-01-25T07:26:05;98411.31;;;1.86;100.00
43701;BME280;58809;47.984;7.964;2023-01-25T07:29:35;98408.09;;;1.68;100.00
43701;BME280;58809;47.984;7.964;2023-01-25T07:32:36;98411.00;;;1.49;100.00
43701;BME280;58809;47.984;7.964;2023-01-25T07:35:38;98412.66;;;1.50;100.00
43701;BME280;58809;47.984;7.964;2023-01-25T07:38:40;98406.88;;;1.59;100.00
43701;BME280;58809;47.984;7.964;2023-01-25T07:41:41;98408.53;;;1.89;100.00
43701;BME280;58809;47.984;7.964;2023-01-25T07:44:46;98416.31;;;2.03;100.00
43701;BME280;58809;47.984;7.964;2023-01-25T07:47:48;98411.03;;;2.18;100.00
43701;BME280;58809;47.984;7.964;2023-01-25T07:50:49;98416.81;;;2.23;100.00
43701;BME280;58809;47.984;7.964;2023-01-25T07:54:11;98415.66;;;2.27;100.00
43701;BME280;58809;47.984;7.964;2023-01-25T07:57:13;98419.78;;;2.31;100.00
43701;BME280;58809;47.984;7.964;2023-01-25T08:00:15;98423.03;;;2.35;100.00
43701;BME280;58809;47.984;7.964;2023-01-25T08:03:17;98424.78;;;2.34;100.00
43701;BME280;58809;47.984;7.964;2023-01-25T08:06:33;98417.03;;;2.33;100.00
43701;BME280;58809;47.984;7.964;2023-01-25T08:09:41;98413.97;;;2.40;100.00
43701;BME280;58809;47.984;7.964;2023-01-25T08:12:44;98410.00;;;2.47;100.00
43701;BME280;58809;47.984;7.964;2023-01-25T08:15:52;98406.25;;;2.52;100.00
43701;BME280;58809;47.984;7.964;2023-01-25T08:18:57;98401.84;;;2.52;100.00
43701;BME280;58809;47.984;7.964;2023-01-25T08:21:59;98399.47;;;2.62;100.00
43701;BME280;58809;47.984;7.964;2023-01-25T08:25:01;98401.38;;;2.73;100.00
43701;BME280;58809;47.984;7.964;2023-01-25T08:28:03;98398.34;;;2.66;100.00
43701;BME280;58809;47.984;7.964;2023-01-25T08:34:10;98399.00;;;2.82;100.00
43701;BME280;58809;47.984;7.964;2023-01-25T08:37:11;98393.16;;;2.92;100.00
43701;BME280;58809;47.984;7.964;2023-01-25T08:40:13;98395.88;;;3.03;100.00
43701;BME280;58809;47.984;7.964;2023-01-25T08:43:15;98393.16;;;3.17;100.00
43701;BME280;58809;47.984;7.964;2023-01-25T08:46:16;98374.94;;;3.28;100.00
43701;BME280;58809;47.984;7.964;2023-01-25T08:49:18;98378.69;;;3.37;100.00
43701;BME280;58809;47.984;7.964;2023-01-25T08:52:20;98374.09;;;3.41;100.00
43701;BME280;58809;47.984;7.964;2023-01-25T08:55:23;98370.09;;;3.48;100.00
43701;BME280;58809;47.984;7.964;2023-01-25T08:58:24;98375.53;;;3.45;100.00
43701;BME280;58809;47.984;7.964;2023-01-25T09:01:26;98375.47;;;3.34;100.00
43701;BME280;58809;47.984;7.964;2023-01-25T09:04:28;98384.13;;;3.34;100.00
43701;BME280;58809;47.984;7.964;2023-01-25T09:07:29;98384.03;;;3.36;100.00
43701;BME280;58809;47.984;7.964;2023-01-25T09:10:33;98379.72;;;3.35;100.00
43701;BME280;58809;47.984;7.964;2023-01-25T09:13:35;98371.50;;;3.28;100.00
43701;BME280;58809;47.984;7.964;2023-01-25T09:16:37;98381.94;;;3.41;100.00
43701;BME280;58809;47.984;7.964;2023-01-25T09:19:38;98379.41;;;3.52;100.00
43701;BME280;58809;47.984;7.964;2023-01-25T09:22:42;98388.63;;;3.32;100.00
43701;BME280;58809;47.984;7.964;2023-01-25T09:25:44;98376.09;;;3.24;100.00
43701;BME280;58809;47.984;7.964;2023-01-25T09:28:47;98380.59;;;3.22;100.00
43701;BME280;58809;47.984;7.964;2023-01-25T09:31:49;98378.06;;;3.34;100.00
43701;BME280;58809;47.984;7.964;2023-01-25T09:35:10;98374.72;;;3.32;100.00
43701;BME280;58809;47.984;7.964;2023-01-25T09:38:12;98385.72;;;3.11;100.00
43701;BME280;58809;47.984;7.964;2023-01-25T09:48:36;98381.63;;;3.07;100.00
43701;BME280;58809;47.984;7.964;2023-01-25T09:55:13;98374.94;;;3.16;100.00
43701;BME280;58809;47.984;7.964;2023-01-25T09:58:23;98381.63;;;3.20;100.00
43701;BME280;58809;47.984;7.964;2023-01-25T10:04:41;98387.91;;;3.17;100.00
43701;BME280;58809;47.984;7.964;2023-01-25T10:07:49;98380.81;;;3.19;100.00
43701;BME280;58809;47.984;7.964;2023-01-25T10:14:17;98375.25;;;3.11;100.00
43701;BME280;58809;47.984;7.964;2023-01-25T10:17:38;98375.78;;;3.16;100.00
43701;BME280;58809;47.984;7.964;2023-01-25T10:20:50;98372.00;;;3.20;100.00
43701;BME280;58809;47.984;7.964;2023-01-25T10:24:13;98359.84;;;3.32;100.00
43701;BME280;58809;47.984;7.964;2023-01-25T10:27:28;98364.94;;;3.59;100.00
43701;BME280;58809;47.984;7.964;2023-01-25T10:33:45;98360.56;;;3.47;100.00
43701;BME280;58809;47.984;7.964;2023-01-25T10:36:53;98358.38;;;3.54;100.00
43701;BME280;58809;47.984;7.964;2023-01-25T10:40:00;98347.97;;;3.65;100.00
43701;BME280;58809;47.984;7.964;2023-01-25T10:43:06;98344.16;;;3.69;99.43
43701;BME280;58809;47.984;7.964;2023-01-25T10:46:18;98336.56;;;3.53;99.07
43701;BME280;58809;47.984;7.964;2023-01-25T10:49:25;98334.91;;;3.52;100.00
43701;BME280;58809;47.984;7.964;2023-01-25T10:52:30;98327.44;;;3.59;100.00
43701;BME280;58809;47.984;7.964;2023-01-25T10:55:33;98317.94;;;3.82;100.00
43701;BME280;58809;47.984;7.964;2023-01-25T11:01:38;98318.81;;;3.94;98.56
43701;BME280;58809;47.984;7.964;2023-01-25T11:04:39;98319.69;;;3.94;97.54
43701;BME280;58809;47.984;7.964;2023-01-25T11:07:45;98312.88;;;3.92;97.39
43701;BME280;58809;47.984;7.964;2023-01-25T11:10:47;98311.81;;;3.94;96.56
43701;BME280;58809;47.984;7.964;2023-01-25T11:13:49;98318.41;;;4.00;96.85
43701;BME280;58809;47.984;7.964;2023-01-25T11:16:51;98304.34;;;4.01;95.96
43701;BME280;58809;47.984;7.964;2023-01-25T11:20:19;98298.63;;;3.96;96.25
43701;BME280;58809;47.984;7.964;2023-01-25T11:23:25;98293.38;;;3.96;96.72
43701;BME280;58809;47.984;7.964;2023-01-25T11:26:27;98292.09;;;4.01;96.90
43701;BME280;58809;47.984;7.964;2023-01-25T11:29:29;98295.94;;;4.09;97.21
43701;BME280;58809;47.984;7.964;2023-01-25T11:32:31;98278.97;;;4.26;96.40
43701;BME280;58809;47.984;7.964;2023-01-25T11:35:33;98279.13;;;4.47;94.84
43701;BME280;58809;47.984;7.964;2023-01-25T11:38:38;98276.06;;;4.75;93.75
43701;BME280;58809;47.984;7.964;2023-01-25T11:48:55;98265.09;;;4.81;89.91
43701;BME280;58809;47.984;7.964;2023-01-25T11:52:12;98255.91;;;4.87;89.03
43701;BME280;58809;47.984;7.964;2023-01-25T11:55:25;98255.34;;;4.84;88.93
43701;BME280;58809;47.984;7.964;2023-01-25T12:02:01;98246.03;;;5.13;87.62
43701;BME280;58809;47.984;7.964;2023-01-25T12:05:47;98235.41;;;5.15;87.46
43701;BME280;58809;47.984;7.964;2023-01-25T12:09:22;98229.31;;;5.26;86.59
43701;BME280;58809;47.984;7.964;2023-01-25T12:12:41;98234.56;;;5.14;85.57
43701;BME280;58809;47.984;7.964;2023-01-25T12:22:49;98204.50;;;5.30;85.22
43701;BME280;58809;47.984;7.964;2023-01-25T12:29:29;98176.94;;;5.56;83.64
43701;BME280;58809;47.984;7.964;2023-01-25T12:32:38;98171.41;;;5.71;82.80
43701;BME280;58809;47.984;7.964;2023-01-25T12:36:02;98164.69;;;5.78;81.86
43701;BME280;58809;47.984;7.964;2023-01-25T12:39:22;98163.59;;;5.81;81.43
43701;BME280;58809;47.984;7.964;2023-01-25T12:42:31;98147.00;;;5.59;80.64
43701;BME280;58809;47.984;7.964;2023-01-25T12:45:36;98141.94;;;5.46;81.26
43701;BME280;58809;47.984;7.964;2023-01-25T12:48:42;98142.47;;;5.61;80.34
43701;BME280;58809;47.984;7.964;2023-01-25T12:51:48;98136.44;;;5.70;80.23
43701;BME280;58809;47.984;7.964;2023-01-25T12:54:51;98131.91;;;5.72;79.77
43701;BME280;58809;47.984;7.964;2023-01-25T12:58:14;98125.34;;;5.67;80.30
43701;BME280;58809;47.984;7.964;2023-01-25T13:01:37;98116.97;;;5.52;80.77
43701;BME280;58809;47.984;7.964;2023-01-25T13:04:52;98116.75;;;5.11;80.98
43701;BME280;58809;47.984;7.964;2023-01-25T13:08:13;98117.78;;;4.88;82.57
43701;BME280;58809;47.984;7.964;2023-01-25T13:11:37;98099.78;;;4.83;83.82
43701;BME280;58809;47.984;7.964;2023-01-25T13:14:40;98112.38;;;5.00;83.19
43701;BME280;58809;47.984;7.964;2023-01-25T13:17:42;98115.88;;;4.90;82.94
43701;BME280;58809;47.984;7.964;2023-01-25T13:20:47;98102.78;;;4.78;83.24
43701;BME280;58809;47.984;7.964;2023-01-25T13:24:10;98095.66;;;4.69;84.63
43701;BME280;58809;47.984;7.964;2023-01-25T13:27:24;98102.06;;;4.76;84.16
43701;BME280;58809;47.984;7.964;2023-01-25T13:30:31;98103.09;;;4.85;83.55
43701;BME280;58809;47.984;7.964;2023-01-25T13:33:35;98087.44;;;4.51;85.67
43701;BME280;58809;47.984;7.964;2023-01-25T13:39:52;98098.28;;;4.69;85.38
43701;BME280;58809;47.984;7.964;2023-01-25T13:46:05;98078.47;;;4.65;85.46
43701;BME280;58809;47.984;7.964;2023-01-25T13:49:17;98072.31;;;4.55;85.59
43701;BME280;58809;47.984;7.964;2023-01-25T13:52:22;98070.16;;;4.60;86.18
43701;BME280;58809;47.984;7.964;2023-01-25T13:55:25;98082.53;;;4.69;85.25
43701;BME280;58809;47.984;7.964;2023-01-25T13:58:33;98077.19;;;4.59;85.99
43701;BME280;58809;47.984;7.964;2023-01-25T14:01:35;98079.31;;;4.66;86.49
43701;BME280;58809;47.984;7.964;2023-01-25T14:04:37;98080.88;;;4.57;86.83
43701;BME280;58809;47.984;7.964;2023-01-25T14:07:42;98070.88;;;4.39;87.29
43701;BME280;58809;47.984;7.964;2023-01-25T14:10:46;98066.25;;;4.32;88.00
43701;BME280;58809;47.984;7.964;2023-01-25T14:14:19;98055.56;;;4.12;88.45
43701;BME280;58809;47.984;7.964;2023-01-25T14:17:22;98062.56;;;4.23;88.64
43701;BME280;58809;47.984;7.964;2023-01-25T14:20:24;98055.41;;;4.14;88.32
43701;BME280;58809;47.984;7.964;2023-01-25T14:23:27;98056.03;;;4.06;88.58
43701;BME280;58809;47.984;7.964;2023-01-25T14:26:35;98051.28;;;3.89;89.44
43701;BME280;58809;47.984;7.964;2023-01-25T14:29:38;98054.72;;;3.78;90.33
43701;BME280;58809;47.984;7.964;2023-01-25T14:32:41;98055.91;;;3.74;90.93
43701;BME280;58809;47.984;7.964;2023-01-25T14:35:43;98054.44;;;3.70;91.12
43701;BME280;58809;47.984;7.964;2023-01-25T14:39:14;98049.47;;;3.66;91.63
43701;BME280;58809;47.984;7.964;2023-01-25T14:42:17;98047.56;;;3.69;91.22
43701;BME280;58809;47.984;7.964;2023-01-25T14:45:20;98048.00;;;3.62;91.63
43701;BME280;58809;47.984;7.964;2023-01-25T14:48:40;98050.16;;;3.57;92.73
43701;BME280;58809;47.984;7.964;2023-01-25T14:51:52;98049.69;;;3.63;92.67
43701;BME280;58809;47.984;7.964;2023-01-25T14:54:56;98040.63;;;3.56;93.06
43701;BME280;58809;47.984;7.964;2023-01-25T14:57:59;98053.50;;;3.59;93.44
43701;BME280;58809;47.984;7.964;2023-01-25T15:01:01;98056.81;;;3.61;93.40
43701;BME280;58809;47.984;7.964;2023-01-25T15:04:09;98047.41;;;3.59;93.70
43701;BME280;58809;47.984;7.964;2023-01-25T15:07:41;98035.72;;;3.52;93.50
43701;BME280;58809;47.984;7.964;2023-01-25T15:14:00;98025.44;;;3.26;94.32
43701;BME280;58809;47.984;7.964;2023-01-25T15:17:02;98043.41;;;3.19;95.53
43701;BME280;58809;47.984;7.964;2023-01-25T15:20:04;98042.69;;;3.17;96.53
43701;BME280;58809;47.984;7.964;2023-01-25T15:23:25;98048.34;;;3.11;96.30
43701;BME280;58809;47.984;7.964;2023-01-25T15:26:30;98032.91;;;3.08;97.44
43701;BME280;58809;47.984;7.964;2023-01-25T15:29:31;98035.41;;;3.10;97.74
43701;BME280;58809;47.984;7.964;2023-01-25T15:32:33;98026.59;;;3.11;97.45
43701;BME280;58809;47.984;7.964;2023-01-25T15:35:34;98026.00;;;3.07;98.01
43701;BME280;58809;47.984;7.964;2023-01-25T15:38:36;98017.47;;;3.16;97.86
43701;BME280;58809;47.984;7.964;2023-01-25T15:41:38;98025.06;;;3.08;97.44
43701;BME280;58809;47.984;7.964;2023-01-25T15:44:39;98021.22;;;3.01;98.31
43701;BME280;58809;47.984;7.964;2023-01-25T15:47:41;98015.75;;;3.04;98.49
43701;BME280;58809;47.984;7.964;2023-01-25T15:50:42;98023.22;;;2.97;98.08
43701;BME280;58809;47.984;7.964;2023-01-25T15:53:44;98012.56;;;2.76;99.08
43701;BME280;58809;47.984;7.964;2023-01-25T15:56:50;98011.38;;;2.56;100.00
43701;BME280;58809;47.984;7.964;2023-01-25T15:59:55;98007.94;;;2.56;100.00
43701;BME280;58809;47.984;7.964;2023-01-25T16:02:57;98008.47;;;2.61;100.00
43701;BME280;58809;47.984;7.964;2023-01-25T16:06:02;98002.63;;;2.57;100.00
43701;BME280;58809;47.984;7.964;2023-01-25T16:09:24;97996.38;;;2.47;100.00
43701;BME280;58809;47.984;7.964;2023-01-25T16:12:27;97989.06;;;2.52;100.00
43701;BME280;58809;47.984;7.964;2023-01-25T16:15:28;97989.22;;;2.62;100.00
43701;BME280;58809;47.984;7.964;2023-01-25T16:18:30;97977.31;;;2.58;100.00
43701;BME280;58809;47.984;7.964;2023-01-25T16:21:32;97966.50;;;2.51;100.00
43701;BME280;58809;47.984;7.964;2023-01-25T16:24:33;97984.59;;;2.41;100.00
43701;BME280;58809;47.984;7.964;2023-01-25T16:27:35;97981.00;;;2.31;100.00
43701;BME280;58809;47.984;7.964;2023-01-25T16:30:36;97979.41;;;2.28;100.00
43701;BME280;58809;47.984;7.964;2023-01-25T16:33:38;97973.03;;;2.33;100.00
43701;BME280;58809;47.984;7.964;2023-01-25T16:36:40;97971.28;;;2.33;100.00
43701;BME280;58809;47.984;7.964;2023-01-25T16:39:41;97976.81;;;2.28;100.00
43701;BME280;58809;47.984;7.964;2023-01-25T16:42:43;97966.97;;;2.32;100.00
43701;BME280;58809;47.984;7.964;2023-01-25T16:45:45;97981.81;;;2.31;100.00
43701;BME280;58809;47.984;7.964;2023-01-25T16:48:49;97962.00;;;2.29;100.00
43701;BME280;58809;47.984;7.964;2023-01-25T16:52:01;97954.03;;;2.30;100.00
43701;BME280;58809;47.984;7.964;2023-01-25T16:55:02;97951.09;;;2.35;100.00
43701;BME280;58809;47.984;7.964;2023-01-25T16:58:05;97952.75;;;2.36;100.00
43701;BME280;58809;47.984;7.964;2023-01-25T17:01:08;97944.66;;;2.28;100.00
43701;BME280;58809;47.984;7.964;2023-01-25T17:04:11;97948.03;;;2.17;100.00
43701;BME280;58809;47.984;7.964;2023-01-25T17:07:13;97949.72;;;2.18;100.00
43701;BME280;58809;47.984;7.964;2023-01-25T17:10:15;97938.75;;;2.13;100.00
43701;BME280;58809;47.984;7.964;2023-01-25T17:13:16;97941.56;;;2.10;100.00
43701;BME280;58809;47.984;7.964;2023-01-25T17:16:19;97948.69;;;2.08;100.00
43701;BME280;58809;47.984;7.964;2023-01-25T17:19:21;97943.94;;;1.89;100.00
43701;BME280;58809;47.984;7.964;2023-01-25T17:22:23;97956.59;;;1.69;100.00
43701;BME280;58809;47.984;7.964;2023-01-25T17:25:25;97954.00;;;1.57;100.00
43701;BME280;58809;47.984;7.964;2023-01-25T17:28:28;97957.69;;;1.54;100.00
43701;BME280;58809;47.984;7.964;2023-01-25T17:31:31;97957.56;;;1.43;100.00
43701;BME280;58809;47.984;7.964;2023-01-25T17:34:33;97958.31;;;1.32;100.00